Terminal Aerodrome Forecast
Issued by NWS

Home | Current Version | Previous Version | Text Only | Print | Product List | Glossary On
Versions: 1 2 3 4 5 6 7 8 9 10 11 12 13 14
000
FTUS43 KFGF 202300
TAFBJI
TAF
KBJI 202325Z 2100/2124 27006KT P6SM SCT250
     FM210400 24008KT P6SM BKN120
     FM210900 28009KT P6SM SCT050
     FM211600 32015G22KT P6SM BKN025=

USA.gov is the U.S. government's official web portal to all federal, state and local government web resources and services.